sensor_id;sensor_type;location;lat;lon;timestamp;pressure;altitude;pressure_sealevel;temperature;humidity
9839;BME280;4958;48.150;11.506;2024-03-23T00:58:32;93982.44;;;14.58;50.73
9839;BME280;4958;48.150;11.506;2024-03-23T01:02:14;93981.16;;;14.60;50.71
9839;BME280;4958;48.150;11.506;2024-03-23T01:12:35;93953.16;;;14.57;50.79
9839;BME280;4958;48.150;11.506;2024-03-23T01:30:11;93954.25;;;14.61;50.93
9839;BME280;4958;48.150;11.506;2024-03-23T01:40:22;93950.13;;;14.65;51.13
9839;BME280;4958;48.150;11.506;2024-03-23T02:16:49;93995.47;;;14.46;52.12
9839;BME280;4958;48.150;11.506;2024-03-23T02:19:34;93986.13;;;14.45;52.33
9839;BME280;4958;48.150;11.506;2024-03-23T02:33:24;93992.50;;;14.37;52.47
9839;BME280;4958;48.150;11.506;2024-03-23T02:36:51;93989.34;;;14.35;52.72
9839;BME280;4958;48.150;11.506;2024-03-23T02:46:48;93993.22;;;14.16;53.28
9839;BME280;4958;48.150;11.506;2024-03-23T03:53:01;94078.94;;;13.58;56.20
9839;BME280;4958;48.150;11.506;2024-03-23T04:09:28;94051.28;;;13.58;55.94
9839;BME280;4958;48.150;11.506;2024-03-23T06:08:27;93776.19;;;13.81;53.34
9839;BME280;4958;48.150;11.506;2024-03-23T06:11:23;93785.81;;;13.86;53.34
9839;BME280;4958;48.150;11.506;2024-03-23T06:17:12;93820.13;;;13.98;54.20
9839;BME280;4958;48.150;11.506;2024-03-23T06:19:38;93875.44;;;14.13;55.60
9839;BME280;4958;48.150;11.506;2024-03-23T06:22:19;93866.66;;;14.36;55.19
9839;BME280;4958;48.150;11.506;2024-03-23T06:24:47;93814.03;;;14.52;53.87
9839;BME280;4958;48.150;11.506;2024-03-23T06:27:25;93755.59;;;14.62;52.90
9839;BME280;4958;48.150;11.506;2024-03-23T06:30:23;93714.41;;;14.65;52.25
9839;BME280;4958;48.150;11.506;2024-03-23T06:33:37;93693.16;;;14.63;52.23
9839;BME280;4958;48.150;11.506;2024-03-23T06:36:36;93675.09;;;14.68;51.84
9839;BME280;4958;48.150;11.506;2024-03-23T06:39:18;93624.13;;;14.79;51.23
9839;BME280;4958;48.150;11.506;2024-03-23T06:42:25;93602.72;;;14.94;51.09
9839;BME280;4958;48.150;11.506;2024-03-23T06:57:14;93543.88;;;15.77;49.93
9839;BME280;4958;48.150;11.506;2024-03-23T07:03:24;93510.13;;;16.28;49.31
9839;BME280;4958;48.150;11.506;2024-03-23T07:12:29;93605.34;;;15.71;51.17
9839;BME280;4958;48.150;11.506;2024-03-23T07:15:13;93635.66;;;15.61;51.92
9839;BME280;4958;48.150;11.506;2024-03-23T07:17:49;93641.06;;;15.49;51.60
9839;BME280;4958;48.150;11.506;2024-03-23T07:20:19;93644.69;;;15.53;51.55
9839;BME280;4958;48.150;11.506;2024-03-23T07:22:48;93654.78;;;15.49;51.74
9839;BME280;4958;48.150;11.506;2024-03-23T07:25:14;93673.47;;;15.51;51.66
9839;BME280;4958;48.150;11.506;2024-03-23T07:27:50;93675.78;;;15.48;52.03
9839;BME280;4958;48.150;11.506;2024-03-23T07:30:19;93685.94;;;15.54;52.02
9839;BME280;4958;48.150;11.506;2024-03-23T07:32:57;93700.75;;;15.59;52.15
9839;BME280;4958;48.150;11.506;2024-03-23T07:35:34;93739.34;;;15.50;52.59
9839;BME280;4958;48.150;11.506;2024-03-23T07:38:08;93785.47;;;15.43;53.07
9839;BME280;4958;48.150;11.506;2024-03-23T07:40:40;94002.06;;;15.19;57.53
9839;BME280;4958;48.150;11.506;2024-03-23T07:43:13;94174.22;;;14.84;60.63
9839;BME280;4958;48.150;11.506;2024-03-23T07:45:38;94274.47;;;14.67;62.77
9839;BME280;4958;48.150;11.506;2024-03-23T07:48:08;94333.00;;;14.51;65.50
9839;BME280;4958;48.150;11.506;2024-03-23T07:50:35;94381.91;;;14.25;67.39
9839;BME280;4958;48.150;11.506;2024-03-23T07:53:08;94397.94;;;13.98;67.77
9839;BME280;4958;48.150;11.506;2024-03-23T07:55:38;94452.03;;;13.76;70.07
9839;BME280;4958;48.150;11.506;2024-03-23T07:58:11;94510.03;;;13.57;71.71
9839;BME280;4958;48.150;11.506;2024-03-23T08:00:36;94584.53;;;13.48;74.52
9839;BME280;4958;48.150;11.506;2024-03-23T08:03:05;94609.78;;;13.17;75.88
9839;BME280;4958;48.150;11.506;2024-03-23T08:05:31;94680.72;;;13.21;79.08
9839;BME280;4958;48.150;11.506;2024-03-23T08:08:13;94726.28;;;13.15;81.51
9839;BME280;4958;48.150;11.506;2024-03-23T08:11:06;94756.28;;;12.91;83.36
9839;BME280;4958;48.150;11.506;2024-03-23T08:14:13;94813.19;;;12.85;85.28
9839;BME280;4958;48.150;11.506;2024-03-23T08:16:43;94859.06;;;12.89;86.23
9839;BME280;4958;48.150;11.506;2024-03-23T08:22:38;94896.69;;;12.72;90.02
9839;BME280;4958;48.150;11.506;2024-03-23T08:25:09;94920.59;;;12.61;90.90
9839;BME280;4958;48.150;11.506;2024-03-23T08:32:05;94991.16;;;12.41;93.54
9839;BME280;4958;48.150;11.506;2024-03-23T08:35:05;94952.44;;;12.35;90.99
9839;BME280;4958;48.150;11.506;2024-03-23T08:37:45;94936.59;;;12.18;90.22
9839;BME280;4958;48.150;11.506;2024-03-23T08:40:48;94950.50;;;12.17;90.10
9839;BME280;4958;48.150;11.506;2024-03-23T08:43:32;94969.78;;;12.08;90.89
9839;BME280;4958;48.150;11.506;2024-03-23T08:46:32;94960.66;;;12.05;90.33
9839;BME280;4958;48.150;11.506;2024-03-23T08:49:04;95014.03;;;12.18;93.74
9839;BME280;4958;48.150;11.506;2024-03-23T08:51:35;95025.09;;;12.52;93.36
9839;BME280;4958;48.150;11.506;2024-03-23T08:54:04;94932.75;;;12.47;88.57
9839;BME280;4958;48.150;11.506;2024-03-23T08:56:36;94909.94;;;12.44;87.16
9839;BME280;4958;48.150;11.506;2024-03-23T08:59:12;94937.53;;;12.37;87.58
9839;BME280;4958;48.150;11.506;2024-03-23T09:01:41;94938.75;;;12.34;87.64
9839;BME280;4958;48.150;11.506;2024-03-23T09:04:14;94987.00;;;12.34;89.21
9839;BME280;4958;48.150;11.506;2024-03-23T09:06:51;94961.19;;;12.34;87.96
9839;BME280;4958;48.150;11.506;2024-03-23T09:09:27;94960.19;;;12.35;87.33
9839;BME280;4958;48.150;11.506;2024-03-23T09:12:19;94996.56;;;12.27;89.56
9839;BME280;4958;48.150;11.506;2024-03-23T09:14:52;95014.84;;;12.12;91.44
9839;BME280;4958;48.150;11.506;2024-03-23T09:20:25;94992.97;;;12.21;89.74
9839;BME280;4958;48.150;11.506;2024-03-23T09:22:58;95012.84;;;12.21;90.87
9839;BME280;4958;48.150;11.506;2024-03-23T09:25:33;94982.66;;;12.28;89.00
9839;BME280;4958;48.150;11.506;2024-03-23T09:30:54;95040.81;;;11.97;92.16
9839;BME280;4958;48.150;11.506;2024-03-23T09:33:32;95038.25;;;11.91;92.11
9839;BME280;4958;48.150;11.506;2024-03-23T09:36:02;95024.34;;;11.79;90.61
9839;BME280;4958;48.150;11.506;2024-03-23T09:38:43;95048.53;;;11.77;91.50
9839;BME280;4958;48.150;11.506;2024-03-23T09:41:09;94942.97;;;11.56;86.24
9839;BME280;4958;48.150;11.506;2024-03-23T09:43:46;94857.13;;;11.49;82.67
9839;BME280;4958;48.150;11.506;2024-03-23T09:46:14;94917.81;;;11.52;84.78
9839;BME280;4958;48.150;11.506;2024-03-23T09:48:54;94889.06;;;11.48;83.01
9839;BME280;4958;48.150;11.506;2024-03-23T09:51:43;94873.97;;;11.52;82.65
9839;BME280;4958;48.150;11.506;2024-03-23T09:57:52;94940.19;;;11.31;84.42
9839;BME280;4958;48.150;11.506;2024-03-23T10:00:24;94911.84;;;11.31;82.84
9839;BME280;4958;48.150;11.506;2024-03-23T10:13:38;94921.78;;;10.54;83.30
9839;BME280;4958;48.150;11.506;2024-03-23T10:19:07;94965.38;;;10.68;84.36
9839;BME280;4958;48.150;11.506;2024-03-23T10:21:52;94974.13;;;10.81;85.13
9839;BME280;4958;48.150;11.506;2024-03-23T10:24:19;95005.06;;;10.87;85.96
9839;BME280;4958;48.150;11.506;2024-03-23T10:27:01;95041.91;;;10.88;87.79
9839;BME280;4958;48.150;11.506;2024-03-23T10:29:34;94992.34;;;10.79;85.36
9839;BME280;4958;48.150;11.506;2024-03-23T10:32:13;95006.66;;;10.88;85.93
9839;BME280;4958;48.150;11.506;2024-03-23T10:34:40;94992.81;;;10.89;85.36
9839;BME280;4958;48.150;11.506;2024-03-23T10:37:14;95019.16;;;10.98;85.72
9839;BME280;4958;48.150;11.506;2024-03-23T10:40:00;94974.00;;;11.02;83.49
9839;BME280;4958;48.150;11.506;2024-03-23T10:42:50;94995.19;;;10.97;83.21
9839;BME280;4958;48.150;11.506;2024-03-23T10:45:29;94936.41;;;10.53;81.95
9839;BME280;4958;48.150;11.506;2024-03-23T10:47:56;94891.03;;;10.46;79.62
9839;BME280;4958;48.150;11.506;2024-03-23T10:50:23;94811.66;;;10.43;77.39
9839;BME280;4958;48.150;11.506;2024-03-23T10:52:53;94788.09;;;10.46;76.44
9839;BME280;4958;48.150;11.506;2024-03-23T10:55:41;94739.81;;;10.34;74.32
9839;BME280;4958;48.150;11.506;2024-03-23T11:00:51;94806.13;;;10.59;75.95
9839;BME280;4958;48.150;11.506;2024-03-23T11:03:33;94763.97;;;10.66;74.41
9839;BME280;4958;48.150;11.506;2024-03-23T11:06:07;94744.59;;;10.70;73.88
9839;BME280;4958;48.150;11.506;2024-03-23T11:08:36;94780.25;;;10.73;74.83
9839;BME280;4958;48.150;11.506;2024-03-23T11:11:21;94789.34;;;10.76;74.21
9839;BME280;4958;48.150;11.506;2024-03-23T11:13:59;94807.94;;;10.78;74.73
9839;BME280;4958;48.150;11.506;2024-03-23T11:17:10;94800.44;;;10.70;74.42
9839;BME280;4958;48.150;11.506;2024-03-23T11:19:41;94818.03;;;10.66;74.54
9839;BME280;4958;48.150;11.506;2024-03-23T11:22:11;94932.94;;;10.74;77.97
9839;BME280;4958;48.150;11.506;2024-03-23T11:24:40;94794.50;;;10.89;74.70
9839;BME280;4958;48.150;11.506;2024-03-23T11:27:18;94781.22;;;10.99;74.39
9839;BME280;4958;48.150;11.506;2024-03-23T11:30:19;94737.44;;;11.05;72.84
9839;BME280;4958;48.150;11.506;2024-03-23T11:33:04;94763.00;;;11.14;73.28
9839;BME280;4958;48.150;11.506;2024-03-23T11:35:42;94803.81;;;11.23;74.18
9839;BME280;4958;48.150;11.506;2024-03-23T11:38:10;94794.09;;;11.19;73.96
9839;BME280;4958;48.150;11.506;2024-03-23T11:40:40;94773.09;;;11.28;73.30
9839;BME280;4958;48.150;11.506;2024-03-23T11:43:08;94771.50;;;11.34;72.73
9839;BME280;4958;48.150;11.506;2024-03-23T11:45:42;94751.09;;;11.26;72.38
9839;BME280;4958;48.150;11.506;2024-03-23T11:48:20;94732.44;;;11.30;71.63
9839;BME280;4958;48.150;11.506;2024-03-23T11:51:01;94724.47;;;11.45;71.41
9839;BME280;4958;48.150;11.506;2024-03-23T11:53:41;94759.72;;;11.58;72.72
9839;BME280;4958;48.150;11.506;2024-03-23T11:56:11;94731.34;;;11.71;72.16
9839;BME280;4958;48.150;11.506;2024-03-23T11:58:48;94740.25;;;11.82;72.02
9839;BME280;4958;48.150;11.506;2024-03-23T12:01:14;95146.25;;;12.20;89.58
9839;BME280;4958;48.150;11.506;2024-03-23T12:03:44;94698.00;;;12.14;72.28
9839;BME280;4958;48.150;11.506;2024-03-23T12:06:23;94611.94;;;12.08;70.07
9839;BME280;4958;48.150;11.506;2024-03-23T12:08:51;94456.13;;;11.60;66.55
9839;BME280;4958;48.150;11.506;2024-03-23T12:11:26;94298.84;;;11.41;64.27
9839;BME280;4958;48.150;11.506;2024-03-23T12:13:59;94297.03;;;11.24;64.34
9839;BME280;4958;48.150;11.506;2024-03-23T12:16:25;94293.66;;;11.23;64.29
9839;BME280;4958;48.150;11.506;2024-03-23T12:18:52;94291.09;;;11.23;64.45
9839;BME280;4958;48.150;11.506;2024-03-23T12:21:24;94328.16;;;11.22;64.60
9839;BME280;4958;48.150;11.506;2024-03-23T12:23:57;94248.72;;;11.19;63.13
9839;BME280;4958;48.150;11.506;2024-03-23T12:26:33;94128.66;;;11.18;61.16
9839;BME280;4958;48.150;11.506;2024-03-23T12:29:01;94111.78;;;11.04;60.57
9839;BME280;4958;48.150;11.506;2024-03-23T12:31:29;94104.56;;;11.13;60.59
9839;BME280;4958;48.150;11.506;2024-03-23T12:33:57;94084.66;;;11.20;60.08
9839;BME280;4958;48.150;11.506;2024-03-23T12:36:27;94022.22;;;11.06;59.10
9839;BME280;4958;48.150;11.506;2024-03-23T12:38:53;94058.53;;;11.16;59.47
9839;BME280;4958;48.150;11.506;2024-03-23T12:41:19;94067.75;;;11.24;59.29
9839;BME280;4958;48.150;11.506;2024-03-23T12:43:55;94079.56;;;11.31;59.23
9839;BME280;4958;48.150;11.506;2024-03-23T12:46:20;94054.81;;;11.30;58.66
9839;BME280;4958;48.150;11.506;2024-03-23T12:48:48;94073.22;;;11.46;59.17
9839;BME280;4958;48.150;11.506;2024-03-23T12:51:19;94118.47;;;11.41;59.92
9839;BME280;4958;48.150;11.506;2024-03-23T12:53:47;94096.06;;;11.42;59.51
9839;BME280;4958;48.150;11.506;2024-03-23T12:56:14;94102.72;;;11.50;59.35
9839;BME280;4958;48.150;11.506;2024-03-23T12:58:44;94110.84;;;11.65;59.54
9839;BME280;4958;48.150;11.506;2024-03-23T13:01:15;94080.25;;;11.68;58.97
9839;BME280;4958;48.150;11.506;2024-03-23T13:03:42;94081.69;;;11.64;58.91
9839;BME280;4958;48.150;11.506;2024-03-23T13:06:15;94074.41;;;11.61;58.98
9839;BME280;4958;48.150;11.506;2024-03-23T13:08:49;94022.38;;;11.53;57.95
9839;BME280;4958;48.150;11.506;2024-03-23T13:11:15;94025.84;;;11.58;58.19
9839;BME280;4958;48.150;11.506;2024-03-23T13:13:47;93904.84;;;11.52;55.86
9839;BME280;4958;48.150;11.506;2024-03-23T13:16:15;93934.75;;;11.53;56.52
9839;BME280;4958;48.150;11.506;2024-03-23T13:18:48;93923.53;;;11.59;56.38
9839;BME280;4958;48.150;11.506;2024-03-23T13:21:17;93912.13;;;11.66;56.22
9839;BME280;4958;48.150;11.506;2024-03-23T13:24:23;93902.25;;;11.63;54.74
9839;BME280;4958;48.150;11.506;2024-03-23T13:26:52;93883.44;;;11.63;54.04
9839;BME280;4958;48.150;11.506;2024-03-23T13:33:06;93902.47;;;11.62;54.00
9839;BME280;4958;48.150;11.506;2024-03-23T13:35:50;93887.81;;;11.51;53.83
9839;BME280;4958;48.150;11.506;2024-03-23T13:38:30;93883.19;;;11.41;54.06
9839;BME280;4958;48.150;11.506;2024-03-23T13:41:09;93913.38;;;11.52;54.50
9839;BME280;4958;48.150;11.506;2024-03-23T13:43:58;93941.94;;;11.51;54.44
9839;BME280;4958;48.150;11.506;2024-03-23T13:49:32;93991.97;;;11.31;55.25
9839;BME280;4958;48.150;11.506;2024-03-23T13:52:26;94147.03;;;11.22;57.23
9839;BME280;4958;48.150;11.506;2024-03-23T13:54:56;94234.47;;;10.73;59.18
9839;BME280;4958;48.150;11.506;2024-03-23T13:57:41;94451.06;;;10.39;63.16
9839;BME280;4958;48.150;11.506;2024-03-23T14:00:27;94561.06;;;10.17;65.27
9839;BME280;4958;48.150;11.506;2024-03-23T14:03:02;94575.31;;;10.13;66.03
9839;BME280;4958;48.150;11.506;2024-03-23T14:05:33;94628.94;;;10.10;67.77
9839;BME280;4958;48.150;11.506;2024-03-23T14:08:02;94573.91;;;10.04;66.16
9839;BME280;4958;48.150;11.506;2024-03-23T14:10:34;94621.00;;;10.11;67.35
9839;BME280;4958;48.150;11.506;2024-03-23T14:13:02;94621.25;;;10.23;67.58
9839;BME280;4958;48.150;11.506;2024-03-23T14:15:29;94628.16;;;10.29;67.39
9839;BME280;4958;48.150;11.506;2024-03-23T14:17:55;94670.53;;;10.33;68.83
9839;BME280;4958;48.150;11.506;2024-03-23T14:20:22;94638.44;;;10.42;67.84
9839;BME280;4958;48.150;11.506;2024-03-23T14:22:50;94633.31;;;10.35;68.07
9839;BME280;4958;48.150;11.506;2024-03-23T14:25:17;94579.47;;;10.47;66.58
9839;BME280;4958;48.150;11.506;2024-03-23T14:27:43;94659.84;;;10.43;68.56
9839;BME280;4958;48.150;11.506;2024-03-23T14:30:14;94539.88;;;10.42;65.65
9839;BME280;4958;48.150;11.506;2024-03-23T14:32:42;94506.63;;;10.47;64.60
9839;BME280;4958;48.150;11.506;2024-03-23T14:37:56;94185.31;;;10.32;58.09
9839;BME280;4958;48.150;11.506;2024-03-23T14:40:23;94136.13;;;10.15;57.71
9839;BME280;4958;48.150;11.506;2024-03-23T14:42:51;94161.28;;;10.13;58.03
9839;BME280;4958;48.150;11.506;2024-03-23T14:45:20;94170.34;;;10.16;57.75
9839;BME280;4958;48.150;11.506;2024-03-23T14:47:53;94184.41;;;10.20;57.57
9839;BME280;4958;48.150;11.506;2024-03-23T14:50:22;94128.13;;;10.30;56.62
9839;BME280;4958;48.150;11.506;2024-03-23T14:52:53;94071.91;;;10.33;55.62
9839;BME280;4958;48.150;11.506;2024-03-23T14:55:23;94011.81;;;10.28;54.53
9839;BME280;4958;48.150;11.506;2024-03-23T14:57:54;94064.34;;;10.38;55.06
9839;BME280;4958;48.150;11.506;2024-03-23T15:00:22;94012.84;;;10.20;54.20
9839;BME280;4958;48.150;11.506;2024-03-23T15:02:56;94044.97;;;10.11;54.86
9839;BME280;4958;48.150;11.506;2024-03-23T15:05:27;94146.38;;;9.90;56.41
9839;BME280;4958;48.150;11.506;2024-03-23T15:07:53;94232.31;;;9.63;58.12
9839;BME280;4958;48.150;11.506;2024-03-23T15:10:20;94346.38;;;9.55;60.11
9839;BME280;4958;48.150;11.506;2024-03-23T15:12:48;94431.16;;;9.49;61.84
9839;BME280;4958;48.150;11.506;2024-03-23T15:15:14;94454.69;;;9.59;62.37
9839;BME280;4958;48.150;11.506;2024-03-23T15:17:44;94449.16;;;9.35;62.11
9839;BME280;4958;48.150;11.506;2024-03-23T15:20:13;94504.84;;;9.22;63.51
9839;BME280;4958;48.150;11.506;2024-03-23T15:22:41;94489.78;;;8.99;64.00
9839;BME280;4958;48.150;11.506;2024-03-23T15:25:08;94550.00;;;8.96;65.42
9839;BME280;4958;48.150;11.506;2024-03-23T15:27:36;94543.34;;;9.15;65.17
9839;BME280;4958;48.150;11.506;2024-03-23T15:30:21;94562.19;;;9.42;65.42
9839;BME280;4958;48.150;11.506;2024-03-23T15:33:05;94536.91;;;9.52;64.71
9839;BME280;4958;48.150;11.506;2024-03-23T15:37:43;94527.22;;;9.67;64.75
9839;BME280;4958;48.150;11.506;2024-03-23T15:42:01;94517.19;;;9.79;64.45
9839;BME280;4958;48.150;11.506;2024-03-23T15:44:45;94526.06;;;9.77;64.92
9839;BME280;4958;48.150;11.506;2024-03-23T15:47:14;94540.69;;;9.76;65.34
9839;BME280;4958;48.150;11.506;2024-03-23T15:49:44;94569.19;;;9.94;65.34
9839;BME280;4958;48.150;11.506;2024-03-23T15:52:20;94583.44;;;10.23;65.63
9839;BME280;4958;48.150;11.506;2024-03-23T15:54:48;94560.88;;;10.52;64.30
9839;BME280;4958;48.150;11.506;2024-03-23T15:57:27;94530.81;;;10.39;63.85
9839;BME280;4958;48.150;11.506;2024-03-23T16:00:02;94522.69;;;10.29;63.96
9839;BME280;4958;48.150;11.506;2024-03-23T16:02:29;94511.03;;;10.26;64.19
9839;BME280;4958;48.150;11.506;2024-03-23T16:07:54;94511.59;;;10.02;64.36
9839;BME280;4958;48.150;11.506;2024-03-23T16:10:26;94525.28;;;9.89;64.88
9839;BME280;4958;48.150;11.506;2024-03-23T16:13:11;94534.56;;;9.90;64.88
9839;BME280;4958;48.150;11.506;2024-03-23T16:16:10;94532.78;;;9.97;64.82
9839;BME280;4958;48.150;11.506;2024-03-23T16:18:41;94526.84;;;10.03;64.98
9839;BME280;4958;48.150;11.506;2024-03-23T16:21:20;94536.53;;;10.08;65.11
9839;BME280;4958;48.150;11.506;2024-03-23T16:23:46;94515.38;;;9.93;64.77
9839;BME280;4958;48.150;11.506;2024-03-23T16:26:17;94520.72;;;9.98;64.93
9839;BME280;4958;48.150;11.506;2024-03-23T16:28:50;94532.19;;;9.95;64.89
9839;BME280;4958;48.150;11.506;2024-03-23T16:34:21;94557.88;;;9.82;65.48
9839;BME280;4958;48.150;11.506;2024-03-23T16:37:09;94563.25;;;9.81;65.30
9839;BME280;4958;48.150;11.506;2024-03-23T16:39:43;94559.84;;;9.67;65.74
9839;BME280;4958;48.150;11.506;2024-03-23T16:42:38;94550.78;;;9.78;65.29
9839;BME280;4958;48.150;11.506;2024-03-23T16:45:37;94557.50;;;9.72;65.37
9839;BME280;4958;48.150;11.506;2024-03-23T16:48:42;94563.44;;;9.73;65.52
9839;BME280;4958;48.150;11.506;2024-03-23T16:54:28;94558.47;;;9.71;65.27
9839;BME280;4958;48.150;11.506;2024-03-23T16:57:05;94541.88;;;9.67;65.32
9839;BME280;4958;48.150;11.506;2024-03-23T16:59:33;94607.88;;;9.66;66.48
9839;BME280;4958;48.150;11.506;2024-03-23T17:02:11;94660.09;;;9.67;67.34
9839;BME280;4958;48.150;11.506;2024-03-23T17:04:40;94697.94;;;9.45;68.46
9839;BME280;4958;48.150;11.506;2024-03-23T17:07:17;94720.88;;;9.47;69.09
9839;BME280;4958;48.150;11.506;2024-03-23T17:10:08;94720.50;;;9.50;68.88
9839;BME280;4958;48.150;11.506;2024-03-23T17:12:49;94725.66;;;9.50;68.83
9839;BME280;4958;48.150;11.506;2024-03-23T17:18:44;94554.75;;;9.06;65.32
9839;BME280;4958;48.150;11.506;2024-03-23T17:21:28;94508.63;;;8.72;64.31
9839;BME280;4958;48.150;11.506;2024-03-23T17:27:23;94701.59;;;8.18;68.50
9839;BME280;4958;48.150;11.506;2024-03-23T17:30:07;94849.78;;;7.93;71.85
9839;BME280;4958;48.150;11.506;2024-03-23T17:36:33;94864.34;;;7.34;73.58
9839;BME280;4958;48.150;11.506;2024-03-23T17:39:17;94904.63;;;7.54;74.91
9839;BME280;4958;48.150;11.506;2024-03-23T17:55:35;94825.16;;;8.28;71.92
9839;BME280;4958;48.150;11.506;2024-03-23T18:16:02;94867.19;;;8.12;71.56
9839;BME280;4958;48.150;11.506;2024-03-23T18:18:59;94858.03;;;8.03;70.99
9839;BME280;4958;48.150;11.506;2024-03-23T18:21:47;94830.19;;;7.85;70.83
9839;BME280;4958;48.150;11.506;2024-03-23T18:24:37;94864.47;;;7.84;71.38
9839;BME280;4958;48.150;11.506;2024-03-23T18:41:22;94918.19;;;7.78;72.64
9839;BME280;4958;48.150;11.506;2024-03-23T18:44:02;94948.31;;;7.61;73.80
9839;BME280;4958;48.150;11.506;2024-03-23T18:50:17;95037.31;;;6.82;79.05
9839;BME280;4958;48.150;11.506;2024-03-23T18:52:51;94978.81;;;7.02;79.45
9839;BME280;4958;48.150;11.506;2024-03-23T18:56:38;94935.19;;;7.18;77.67
9839;BME280;4958;48.150;11.506;2024-03-23T19:00:09;94897.06;;;7.46;76.28
9839;BME280;4958;48.150;11.506;2024-03-23T19:02:49;94883.28;;;7.62;75.52
9839;BME280;4958;48.150;11.506;2024-03-23T19:09:17;94839.47;;;7.72;74.34
9839;BME280;4958;48.150;11.506;2024-03-23T19:11:56;94843.09;;;7.77;74.14
9839;BME280;4958;48.150;11.506;2024-03-23T19:14:51;94828.97;;;7.81;73.31
9839;BME280;4958;48.150;11.506;2024-03-23T19:17:47;94826.94;;;7.77;73.67
9839;BME280;4958;48.150;11.506;2024-03-23T19:24:19;94846.00;;;7.89;73.97
9839;BME280;4958;48.150;11.506;2024-03-23T19:27:07;94830.25;;;7.92;73.42
9839;BME280;4958;48.150;11.506;2024-03-23T19:33:03;94817.09;;;7.95;73.12
9839;BME280;4958;48.150;11.506;2024-03-23T19:36:16;94826.47;;;8.03;73.26
9839;BME280;4958;48.150;11.506;2024-03-23T19:59:14;94832.50;;;7.80;74.04
9839;BME280;4958;48.150;11.506;2024-03-23T20:02:50;94830.09;;;7.79;74.09
9839;BME280;4958;48.150;11.506;2024-03-23T20:06:07;94829.38;;;7.70;73.81
9839;BME280;4958;48.150;11.506;2024-03-23T20:11:33;94848.56;;;7.74;74.11
9839;BME280;4958;48.150;11.506;2024-03-23T20:13:02;94835.75;;;7.74;73.91
9839;BME280;4958;48.150;11.506;2024-03-23T20:19:28;94837.19;;;7.62;74.42
9839;BME280;4958;48.150;11.506;2024-03-23T20:22:37;94858.03;;;7.59;74.79
9839;BME280;4958;48.150;11.506;2024-03-23T20:29:10;94825.78;;;7.65;73.86
9839;BME280;4958;48.150;11.506;2024-03-23T20:32:05;94809.19;;;7.60;73.52
9839;BME280;4958;48.150;11.506;2024-03-23T20:45:41;94769.88;;;7.68;72.46
9839;BME280;4958;48.150;11.506;2024-03-23T20:54:44;94760.84;;;7.57;72.50
9839;BME280;4958;48.150;11.506;2024-03-23T21:01:13;94748.81;;;7.73;71.75
9839;BME280;4958;48.150;11.506;2024-03-23T21:03:57;94739.31;;;7.67;71.54
9839;BME280;4958;48.150;11.506;2024-03-23T21:13:49;94728.25;;;7.51;71.67
9839;BME280;4958;48.150;11.506;2024-03-23T21:16:55;94732.38;;;7.31;71.93
9839;BME280;4958;48.150;11.506;2024-03-23T21:19:49;94761.13;;;7.18;72.67
9839;BME280;4958;48.150;11.506;2024-03-23T21:22:56;94774.88;;;7.17;73.13
9839;BME280;4958;48.150;11.506;2024-03-23T21:26:05;94783.63;;;7.08;73.33
9839;BME280;4958;48.150;11.506;2024-03-23T21:28:59;94792.34;;;6.99;73.75
9839;BME280;4958;48.150;11.506;2024-03-23T21:31:48;94812.34;;;6.96;74.28
9839;BME280;4958;48.150;11.506;2024-03-23T21:35:00;94824.13;;;7.05;74.35
9839;BME280;4958;48.150;11.506;2024-03-23T21:37:57;94824.84;;;7.13;74.10
9839;BME280;4958;48.150;11.506;2024-03-23T21:41:18;94816.63;;;7.03;74.01
9839;BME280;4958;48.150;11.506;2024-03-23T21:44:02;94835.97;;;7.06;74.83
9839;BME280;4958;48.150;11.506;2024-03-23T21:46:55;94822.19;;;7.07;73.96
9839;BME280;4958;48.150;11.506;2024-03-23T21:50:05;94824.66;;;6.77;74.43
9839;BME280;4958;48.150;11.506;2024-03-23T21:56:48;94875.59;;;6.64;75.46
9839;BME280;4958;48.150;11.506;2024-03-23T22:03:32;94843.53;;;6.76;74.64
9839;BME280;4958;48.150;11.506;2024-03-23T22:30:24;94778.47;;;6.56;73.32
9839;BME280;4958;48.150;11.506;2024-03-23T22:33:27;94788.09;;;6.54;73.79
9839;BME280;4958;48.150;11.506;2024-03-23T22:36:21;94795.22;;;6.58;73.90
9839;BME280;4958;48.150;11.506;2024-03-23T22:44:37;94773.50;;;6.54;73.23
9839;BME280;4958;48.150;11.506;2024-03-23T22:49:10;94787.69;;;6.42;73.78
9839;BME280;4958;48.150;11.506;2024-03-23T22:51:50;94784.75;;;6.53;74.10
9839;BME280;4958;48.150;11.506;2024-03-23T22:54:50;94759.97;;;6.54;73.43
9839;BME280;4958;48.150;11.506;2024-03-23T22:57:29;94775.53;;;6.44;73.72
9839;BME280;4958;48.150;11.506;2024-03-23T23:10:14;94757.00;;;6.80;73.15
9839;BME280;4958;48.150;11.506;2024-03-23T23:16:34;94740.38;;;6.99;72.56
9839;BME280;4958;48.150;11.506;2024-03-23T23:22:41;94715.41;;;7.01;72.37
9839;BME280;4958;48.150;11.506;2024-03-23T23:25:42;94715.50;;;7.07;72.21
9839;BME280;4958;48.150;11.506;2024-03-23T23:31:34;94696.25;;;6.97;72.12
9839;BME280;4958;48.150;11.506;2024-03-23T23:34:44;94703.91;;;6.97;72.36
9839;BME280;4958;48.150;11.506;2024-03-23T23:44:05;94688.75;;;6.95;72.12
9839;BME280;4958;48.150;11.506;2024-03-23T23:46:46;94679.91;;;6.98;71.90
9839;BME280;4958;48.150;11.506;2024-03-23T23:49:24;94658.03;;;6.95;71.56
9839;BME280;4958;48.150;11.506;2024-03-23T23:55:39;94662.72;;;6.77;71.94
9839;BME280;4958;48.150;11.506;2024-03-23T23:58:57;94669.41;;;6.78;72.20
